sensor_id;sensor_type;location;lat;lon;timestamp;pressure;altitude;pressure_sealevel;temperature;humidity
55032;BME280;40928;51.076;7.950;2023-05-10T00:01:54;96279.50;;;11.47;100.00
55032;BME280;40928;51.076;7.950;2023-05-10T00:04:19;96287.50;;;11.47;100.00
55032;BME280;40928;51.076;7.950;2023-05-10T00:06:47;96281.06;;;11.27;100.00
55032;BME280;40928;51.076;7.950;2023-05-10T00:09:12;96280.53;;;11.36;100.00
55032;BME280;40928;51.076;7.950;2023-05-10T00:11:38;96283.47;;;11.34;100.00
55032;BME280;40928;51.076;7.950;2023-05-10T00:14:03;96288.56;;;11.36;100.00
55032;BME280;40928;51.076;7.950;2023-05-10T00:16:29;96280.53;;;11.36;100.00
55032;BME280;40928;51.076;7.950;2023-05-10T00:18:54;96282.94;;;11.37;100.00
55032;BME280;40928;51.076;7.950;2023-05-10T00:21:20;96291.25;;;11.41;100.00
55032;BME280;40928;51.076;7.950;2023-05-10T00:23:45;96281.63;;;11.40;100.00
55032;BME280;40928;51.076;7.950;2023-05-10T00:26:11;96286.97;;;11.45;100.00
55032;BME280;40928;51.076;7.950;2023-05-10T00:28:37;96276.81;;;11.47;100.00
55032;BME280;40928;51.076;7.950;2023-05-10T00:31:03;96278.72;;;11.47;100.00
55032;BME280;40928;51.076;7.950;2023-05-10T00:33:28;96289.13;;;11.48;100.00
55032;BME280;40928;51.076;7.950;2023-05-10T00:35:54;96287.50;;;11.47;100.00
55032;BME280;40928;51.076;7.950;2023-05-10T00:38:20;96277.66;;;11.48;100.00
55032;BME280;40928;51.076;7.950;2023-05-10T00:40:45;96281.63;;;11.45;100.00
55032;BME280;40928;51.076;7.950;2023-05-10T00:43:19;96277.09;;;11.46;100.00
55032;BME280;40928;51.076;7.950;2023-05-10T00:45:46;96278.69;;;11.41;100.00
55032;BME280;40928;51.076;7.950;2023-05-10T00:48:12;96268.50;;;11.33;100.00
55032;BME280;40928;51.076;7.950;2023-05-10T00:50:38;96280.56;;;11.41;100.00
55032;BME280;40928;51.076;7.950;2023-05-10T00:53:05;96280.56;;;11.41;100.00
55032;BME280;40928;51.076;7.950;2023-05-10T00:55:31;96284.56;;;11.43;100.00
55032;BME280;40928;51.076;7.950;2023-05-10T00:57:57;96284.06;;;11.47;100.00
55032;BME280;40928;51.076;7.950;2023-05-10T01:00:22;96278.72;;;11.47;100.00
55032;BME280;40928;51.076;7.950;2023-05-10T01:02:48;96273.38;;;11.47;100.00
55032;BME280;40928;51.076;7.950;2023-05-10T01:05:15;96275.22;;;11.41;100.00
55032;BME280;40928;51.076;7.950;2023-05-10T01:07:42;96277.63;;;11.42;100.00
55032;BME280;40928;51.076;7.950;2023-05-10T01:10:09;96276.81;;;11.42;100.00
55032;BME280;40928;51.076;7.950;2023-05-10T01:12:37;96268.53;;;11.43;100.00
55032;BME280;40928;51.076;7.950;2023-05-10T01:15:05;96277.34;;;11.39;100.00
55032;BME280;40928;51.076;7.950;2023-05-10T01:17:32;96284.31;;;11.40;100.00
55032;BME280;40928;51.076;7.950;2023-05-10T01:19:58;96281.88;;;11.38;100.00
55032;BME280;40928;51.076;7.950;2023-05-10T01:25:19;96278.97;;;11.40;100.00
55032;BME280;40928;51.076;7.950;2023-05-10T01:33:26;96287.50;;;11.37;100.00
55032;BME280;40928;51.076;7.950;2023-05-10T01:36:05;96286.44;;;11.38;100.00
55032;BME280;40928;51.076;7.950;2023-05-10T01:41:17;96284.56;;;11.33;100.00
55032;BME280;40928;51.076;7.950;2023-05-10T01:46:24;96291.47;;;11.29;100.00
55032;BME280;40928;51.076;7.950;2023-05-10T01:48:55;96292.81;;;11.26;100.00
55032;BME280;40928;51.076;7.950;2023-05-10T01:51:29;96292.25;;;11.24;100.00
55032;BME280;40928;51.076;7.950;2023-05-10T01:54:01;96296.28;;;11.27;100.00
55032;BME280;40928;51.076;7.950;2023-05-10T01:56:29;96295.75;;;11.30;100.00
55032;BME280;40928;51.076;7.950;2023-05-10T01:58:57;96292.81;;;11.32;100.00
55032;BME280;40928;51.076;7.950;2023-05-10T02:01:24;96290.69;;;11.34;100.00
55032;BME280;40928;51.076;7.950;2023-05-10T02:03:51;96293.34;;;11.34;100.00
55032;BME280;40928;51.076;7.950;2023-05-10T02:06:20;96297.63;;;11.35;100.00
55032;BME280;40928;51.076;7.950;2023-05-10T02:08:49;96296.81;;;11.29;100.00
55032;BME280;40928;51.076;7.950;2023-05-10T02:11:17;96289.06;;;11.27;100.00
55032;BME280;40928;51.076;7.950;2023-05-10T02:13:44;96289.31;;;11.26;100.00
55032;BME280;40928;51.076;7.950;2023-05-10T02:16:13;96296.50;;;11.20;100.00
55032;BME280;40928;51.076;7.950;2023-05-10T02:18:40;96296.50;;;11.20;100.00
55032;BME280;40928;51.076;7.950;2023-05-10T02:21:07;96294.91;;;11.19;100.00
55032;BME280;40928;51.076;7.950;2023-05-10T02:23:34;96299.69;;;11.17;100.00
55032;BME280;40928;51.076;7.950;2023-05-10T02:26:01;96301.03;;;11.15;100.00
55032;BME280;40928;51.076;7.950;2023-05-10T02:28:27;96306.34;;;11.09;100.00
55032;BME280;40928;51.076;7.950;2023-05-10T02:30:55;96307.94;;;11.10;100.00
55032;BME280;40928;51.076;7.950;2023-05-10T02:33:21;96309.00;;;11.09;100.00
55032;BME280;40928;51.076;7.950;2023-05-10T02:35:48;96309.00;;;11.04;100.00
55032;BME280;40928;51.076;7.950;2023-05-10T02:38:15;96300.44;;;11.07;100.00
55032;BME280;40928;51.076;7.950;2023-05-10T02:40:42;96308.47;;;11.07;100.00
55032;BME280;40928;51.076;7.950;2023-05-10T02:43:12;96310.63;;;11.10;100.00
55032;BME280;40928;51.076;7.950;2023-05-10T02:45:39;96304.72;;;11.08;100.00
55032;BME280;40928;51.076;7.950;2023-05-10T02:48:05;96309.84;;;11.10;100.00
55032;BME280;40928;51.076;7.950;2023-05-10T02:50:33;96305.28;;;11.10;100.00
55032;BME280;40928;51.076;7.950;2023-05-10T02:53:06;96309.00;;;11.04;100.00
55032;BME280;40928;51.076;7.950;2023-05-10T02:55:40;96310.81;;;10.99;100.00
55032;BME280;40928;51.076;7.950;2023-05-10T02:58:07;96309.44;;;10.91;100.00
55032;BME280;40928;51.076;7.950;2023-05-10T03:00:33;96307.88;;;10.95;100.00
55032;BME280;40928;51.076;7.950;2023-05-10T03:02:59;96309.75;;;11.00;100.00
55032;BME280;40928;51.076;7.950;2023-05-10T03:05:25;96312.75;;;11.03;100.00
55032;BME280;40928;51.076;7.950;2023-05-10T03:07:51;96311.91;;;11.03;100.00
55032;BME280;40928;51.076;7.950;2023-05-10T03:10:18;96303.91;;;11.03;100.00
55032;BME280;40928;51.076;7.950;2023-05-10T03:18:13;96320.75;;;11.08;100.00
55032;BME280;40928;51.076;7.950;2023-05-10T03:20:47;96313.03;;;11.07;100.00
55032;BME280;40928;51.076;7.950;2023-05-10T03:23:22;96314.34;;;11.09;100.00
55032;BME280;40928;51.076;7.950;2023-05-10T03:25:50;96317.84;;;11.10;100.00
55032;BME280;40928;51.076;7.950;2023-05-10T03:28:17;96319.69;;;11.04;100.00
55032;BME280;40928;51.076;7.950;2023-05-10T03:30:44;96321.81;;;11.07;100.00
55032;BME280;40928;51.076;7.950;2023-05-10T03:33:11;96316.75;;;11.06;100.00
55032;BME280;40928;51.076;7.950;2023-05-10T03:35:41;96314.34;;;11.09;100.00
55032;BME280;40928;51.076;7.950;2023-05-10T03:38:07;96321.88;;;11.12;100.00
55032;BME280;40928;51.076;7.950;2023-05-10T03:40:33;96318.41;;;11.12;100.00
55032;BME280;40928;51.076;7.950;2023-05-10T03:42:59;96316.50;;;11.12;100.00
55032;BME280;40928;51.076;7.950;2023-05-10T03:45:25;96317.34;;;11.13;100.00
55032;BME280;40928;51.076;7.950;2023-05-10T03:47:51;96316.50;;;11.12;100.00
55032;BME280;40928;51.076;7.950;2023-05-10T03:50:16;96321.88;;;11.12;100.00
55032;BME280;40928;51.076;7.950;2023-05-10T03:52:42;96331.50;;;11.14;100.00
55032;BME280;40928;51.076;7.950;2023-05-10T03:55:08;96331.50;;;11.14;100.00
55032;BME280;40928;51.076;7.950;2023-05-10T03:57:33;96329.09;;;11.12;100.00
55032;BME280;40928;51.076;7.950;2023-05-10T03:59:59;96329.88;;;11.12;100.00
55032;BME280;40928;51.076;7.950;2023-05-10T04:02:25;96332.03;;;11.16;100.00
55032;BME280;40928;51.076;7.950;2023-05-10T04:04:52;96329.59;;;11.14;100.00
55032;BME280;40928;51.076;7.950;2023-05-10T04:07:17;96330.44;;;11.15;100.00
55032;BME280;40928;51.076;7.950;2023-05-10T04:09:43;96326.41;;;11.17;100.00
55032;BME280;40928;51.076;7.950;2023-05-10T04:12:08;96337.09;;;11.17;100.00
55032;BME280;40928;51.076;7.950;2023-05-10T04:14:35;96343.28;;;11.18;100.00
55032;BME280;40928;51.076;7.950;2023-05-10T04:17:00;96336.88;;;11.19;100.00
55032;BME280;40928;51.076;7.950;2023-05-10T04:19:32;96330.19;;;11.21;100.00
55032;BME280;40928;51.076;7.950;2023-05-10T04:21:58;96343.00;;;11.19;100.00
55032;BME280;40928;51.076;7.950;2023-05-10T04:24:24;96333.88;;;11.15;100.00
55032;BME280;40928;51.076;7.950;2023-05-10T04:26:49;96338.72;;;11.13;100.00
55032;BME280;40928;51.076;7.950;2023-05-10T04:29:19;96341.91;;;11.15;100.00
55032;BME280;40928;51.076;7.950;2023-05-10T04:31:50;96337.94;;;11.18;100.00
55032;BME280;40928;51.076;7.950;2023-05-10T04:34:16;96341.91;;;11.15;100.00
55032;BME280;40928;51.076;7.950;2023-05-10T04:36:41;96348.06;;;11.16;100.00
55032;BME280;40928;51.076;7.950;2023-05-10T04:39:07;96349.69;;;11.17;100.00
55032;BME280;40928;51.076;7.950;2023-05-10T04:41:32;96356.13;;;11.21;100.00
55032;BME280;40928;51.076;7.950;2023-05-10T04:43:58;96355.81;;;11.17;100.00
55032;BME280;40928;51.076;7.950;2023-05-10T04:46:23;96350.47;;;11.17;100.00
55032;BME280;40928;51.076;7.950;2023-05-10T04:48:49;96359.00;;;11.14;100.00
55032;BME280;40928;51.076;7.950;2023-05-10T04:51:14;96363.03;;;11.17;100.00
55032;BME280;40928;51.076;7.950;2023-05-10T04:53:40;96366.25;;;11.19;100.00
55032;BME280;40928;51.076;7.950;2023-05-10T04:56:06;96372.16;;;11.26;100.00
55032;BME280;40928;51.076;7.950;2023-05-10T04:58:32;96373.00;;;11.32;100.00
55032;BME280;40928;51.076;7.950;2023-05-10T05:01:04;96371.41;;;11.36;100.00
55032;BME280;40928;51.076;7.950;2023-05-10T05:03:30;96380.78;;;11.38;100.00
55032;BME280;40928;51.076;7.950;2023-05-10T05:05:55;96386.16;;;11.43;100.00
55032;BME280;40928;51.076;7.950;2023-05-10T05:08:21;96389.38;;;11.46;100.00
55032;BME280;40928;51.076;7.950;2023-05-10T05:10:47;96390.44;;;11.45;100.00
55032;BME280;40928;51.076;7.950;2023-05-10T05:13:15;96392.03;;;11.40;100.00
55032;BME280;40928;51.076;7.950;2023-05-10T05:15:40;96396.56;;;11.40;100.00
55032;BME280;40928;51.076;7.950;2023-05-10T05:18:06;96395.25;;;11.42;100.00
55032;BME280;40928;51.076;7.950;2023-05-10T05:20:32;96407.28;;;11.45;100.00
55032;BME280;40928;51.076;7.950;2023-05-10T05:22:58;96399.81;;;11.47;100.00
55032;BME280;40928;51.076;7.950;2023-05-10T05:25:24;96398.75;;;11.48;100.00
55032;BME280;40928;51.076;7.950;2023-05-10T05:27:49;96406.75;;;11.48;100.00
55032;BME280;40928;51.076;7.950;2023-05-10T05:30:15;96410.78;;;11.46;100.00
55032;BME280;40928;51.076;7.950;2023-05-10T05:32:40;96406.22;;;11.46;100.00
55032;BME280;40928;51.076;7.950;2023-05-10T05:35:06;96406.53;;;11.50;100.00
55032;BME280;40928;51.076;7.950;2023-05-10T05:37:32;96408.13;;;11.51;100.00
55032;BME280;40928;51.076;7.950;2023-05-10T05:39:57;96414.78;;;11.48;100.00
55032;BME280;40928;51.076;7.950;2023-05-10T05:42:23;96417.75;;;11.52;100.00
55032;BME280;40928;51.076;7.950;2023-05-10T05:44:48;96423.41;;;11.55;100.00
55032;BME280;40928;51.076;7.950;2023-05-10T05:47:14;96419.63;;;11.51;100.00
55032;BME280;40928;51.076;7.950;2023-05-10T05:49:39;96427.09;;;11.49;100.00
55032;BME280;40928;51.076;7.950;2023-05-10T05:52:05;96433.25;;;11.50;100.00
55032;BME280;40928;51.076;7.950;2023-05-10T05:54:31;96436.22;;;11.53;100.00
55032;BME280;40928;51.076;7.950;2023-05-10T05:56:57;96431.13;;;11.52;100.00
55032;BME280;40928;51.076;7.950;2023-05-10T05:59:24;96442.56;;;11.42;100.00
55032;BME280;40928;51.076;7.950;2023-05-10T06:01:50;96437.50;;;11.46;100.00
55032;BME280;40928;51.076;7.950;2023-05-10T06:04:16;96447.38;;;11.45;100.00
55032;BME280;40928;51.076;7.950;2023-05-10T06:06:42;96451.44;;;11.48;100.00
55032;BME280;40928;51.076;7.950;2023-05-10T06:09:08;96440.69;;;11.42;100.00
55032;BME280;40928;51.076;7.950;2023-05-10T06:11:34;96446.59;;;11.45;100.00
55032;BME280;40928;51.076;7.950;2023-05-10T06:14:00;96449.81;;;11.47;100.00
55032;BME280;40928;51.076;7.950;2023-05-10T06:16:26;96453.03;;;11.49;100.00
55032;BME280;40928;51.076;7.950;2023-05-10T06:18:52;96458.66;;;11.52;100.00
55032;BME280;40928;51.076;7.950;2023-05-10T06:21:18;96460.50;;;11.47;100.00
55032;BME280;40928;51.076;7.950;2023-05-10T06:23:43;96458.63;;;11.47;100.00
55032;BME280;40928;51.076;7.950;2023-05-10T06:26:09;96464.56;;;11.54;100.00
55032;BME280;40928;51.076;7.950;2023-05-10T06:28:35;96459.44;;;11.53;100.00
55032;BME280;40928;51.076;7.950;2023-05-10T06:31:04;96454.16;;;11.58;100.00
55032;BME280;40928;51.076;7.950;2023-05-10T06:33:30;96462.13;;;11.53;100.00
55032;BME280;40928;51.076;7.950;2023-05-10T06:35:56;96463.00;;;11.58;100.00
55032;BME280;40928;51.076;7.950;2023-05-10T06:38:22;96465.94;;;11.62;100.00
55032;BME280;40928;51.076;7.950;2023-05-10T06:40:48;96468.13;;;11.70;100.00
55032;BME280;40928;51.076;7.950;2023-05-10T06:43:14;96471.59;;;11.71;100.00
55032;BME280;40928;51.076;7.950;2023-05-10T06:45:39;96475.38;;;11.80;100.00
55032;BME280;40928;51.076;7.950;2023-05-10T06:48:06;96472.50;;;11.92;100.00
55032;BME280;40928;51.076;7.950;2023-05-10T06:50:32;96469.09;;;12.07;100.00
55032;BME280;40928;51.076;7.950;2023-05-10T06:52:58;96468.03;;;12.03;100.00
55032;BME280;40928;51.076;7.950;2023-05-10T06:55:24;96476.41;;;12.22;100.00
55032;BME280;40928;51.076;7.950;2023-05-10T06:57:50;96477.22;;;12.28;100.00
55032;BME280;40928;51.076;7.950;2023-05-10T07:00:16;96484.50;;;12.43;100.00
55032;BME280;40928;51.076;7.950;2023-05-10T07:02:42;96483.19;;;12.51;100.00
55032;BME280;40928;51.076;7.950;2023-05-10T07:05:08;96487.19;;;12.53;100.00
55032;BME280;40928;51.076;7.950;2023-05-10T07:07:33;96478.34;;;12.58;100.00
55032;BME280;40928;51.076;7.950;2023-05-10T07:09:59;96477.28;;;12.59;100.00
55032;BME280;40928;51.076;7.950;2023-05-10T07:12:25;96486.66;;;12.51;100.00
55032;BME280;40928;51.076;7.950;2023-05-10T07:14:50;96485.59;;;12.52;100.00
55032;BME280;40928;51.076;7.950;2023-05-10T07:17:16;96483.94;;;12.46;100.00
55032;BME280;40928;51.076;7.950;2023-05-10T07:19:41;96490.34;;;12.34;100.00
55032;BME280;40928;51.076;7.950;2023-05-10T07:22:07;96494.09;;;12.33;100.00
55032;BME280;40928;51.076;7.950;2023-05-10T07:24:33;96491.13;;;12.25;100.00
55032;BME280;40928;51.076;7.950;2023-05-10T07:26:59;96502.91;;;12.18;100.00
55032;BME280;40928;51.076;7.950;2023-05-10T07:29:25;96496.47;;;12.20;100.00
55032;BME280;40928;51.076;7.950;2023-05-10T07:31:51;96488.44;;;12.25;100.00
55032;BME280;40928;51.076;7.950;2023-05-10T07:34:16;96496.22;;;12.31;100.00
55032;BME280;40928;51.076;7.950;2023-05-10T07:36:42;96499.50;;;12.44;100.00
55032;BME280;40928;51.076;7.950;2023-05-10T07:39:07;96498.97;;;12.52;100.00
55032;BME280;40928;51.076;7.950;2023-05-10T07:41:33;96493.91;;;12.61;100.00
55032;BME280;40928;51.076;7.950;2023-05-10T07:43:59;96492.84;;;12.67;100.00
55032;BME280;40928;51.076;7.950;2023-05-10T07:46:24;96494.47;;;12.68;100.00
55032;BME280;40928;51.076;7.950;2023-05-10T07:48:50;96496.63;;;12.82;100.00
55032;BME280;40928;51.076;7.950;2023-05-10T07:51:15;96498.22;;;12.88;100.00
55032;BME280;40928;51.076;7.950;2023-05-10T07:53:41;96503.31;;;12.94;100.00
55032;BME280;40928;51.076;7.950;2023-05-10T07:56:29;96511.09;;;12.91;100.00
55032;BME280;40928;51.076;7.950;2023-05-10T07:58:59;96501.72;;;12.83;100.00
55032;BME280;40928;51.076;7.950;2023-05-10T08:01:25;96509.47;;;12.79;100.00
55032;BME280;40928;51.076;7.950;2023-05-10T08:03:51;96510.00;;;12.71;100.00
55032;BME280;40928;51.076;7.950;2023-05-10T08:06:19;96515.91;;;12.68;100.00
55032;BME280;40928;51.076;7.950;2023-05-10T08:08:48;96518.28;;;12.59;100.00
55032;BME280;40928;51.076;7.950;2023-05-10T08:11:19;96516.63;;;12.48;100.00
55032;BME280;40928;51.076;7.950;2023-05-10T08:13:46;96519.06;;;12.49;100.00
55032;BME280;40928;51.076;7.950;2023-05-10T08:16:12;96521.19;;;12.47;100.00
55032;BME280;40928;51.076;7.950;2023-05-10T08:18:38;96519.34;;;12.53;100.00
55032;BME280;40928;51.076;7.950;2023-05-10T08:21:05;96527.66;;;12.62;100.00
55032;BME280;40928;51.076;7.950;2023-05-10T08:23:31;96531.16;;;12.68;100.00
55032;BME280;40928;51.076;7.950;2023-05-10T08:25:56;96532.19;;;12.61;100.00
55032;BME280;40928;51.076;7.950;2023-05-10T08:28:22;96529.28;;;12.73;100.00
55032;BME280;40928;51.076;7.950;2023-05-10T08:30:54;96529.06;;;12.90;100.00
55032;BME280;40928;51.076;7.950;2023-05-10T08:33:20;96533.88;;;12.93;100.00
55032;BME280;40928;51.076;7.950;2023-05-10T08:35:45;96539.75;;;12.85;100.00
55032;BME280;40928;51.076;7.950;2023-05-10T08:38:11;96543.53;;;12.94;100.00
55032;BME280;40928;51.076;7.950;2023-05-10T08:40:40;96538.97;;;13.05;100.00
55032;BME280;40928;51.076;7.950;2023-05-10T08:43:09;96547.84;;;13.16;100.00
55032;BME280;40928;51.076;7.950;2023-05-10T08:45:40;96540.88;;;13.31;100.00
55032;BME280;40928;51.076;7.950;2023-05-10T08:48:07;96547.06;;;13.57;100.00
55032;BME280;40928;51.076;7.950;2023-05-10T08:50:37;96549.47;;;13.79;100.00
55032;BME280;40928;51.076;7.950;2023-05-10T08:53:06;96544.63;;;13.76;100.00
55032;BME280;40928;51.076;7.950;2023-05-10T08:55:32;96547.03;;;13.83;100.00
55032;BME280;40928;51.076;7.950;2023-05-10T08:57:59;96539.81;;;13.68;100.00
55032;BME280;40928;51.076;7.950;2023-05-10T09:00:25;96551.31;;;13.79;100.00
55032;BME280;40928;51.076;7.950;2023-05-10T09:02:51;96554.56;;;13.76;100.00
55032;BME280;40928;51.076;7.950;2023-05-10T09:05:17;96552.13;;;13.84;100.00
55032;BME280;40928;51.076;7.950;2023-05-10T09:07:43;96545.66;;;13.96;100.00
55032;BME280;40928;51.076;7.950;2023-05-10T09:10:10;96551.00;;;14.06;100.00
55032;BME280;40928;51.076;7.950;2023-05-10T09:12:37;96549.38;;;14.10;100.00
55032;BME280;40928;51.076;7.950;2023-05-10T09:15:03;96551.84;;;13.91;100.00
55032;BME280;40928;51.076;7.950;2023-05-10T09:17:31;96559.34;;;13.94;100.00
55032;BME280;40928;51.076;7.950;2023-05-10T09:20:01;96563.94;;;13.83;100.00
55032;BME280;40928;51.076;7.950;2023-05-10T09:22:27;96566.63;;;13.73;100.00
55032;BME280;40928;51.076;7.950;2023-05-10T09:25:13;96557.25;;;13.70;100.00
55032;BME280;40928;51.076;7.950;2023-05-10T09:27:39;96573.06;;;13.57;100.00
55032;BME280;40928;51.076;7.950;2023-05-10T09:30:06;96576.00;;;13.39;100.00
55032;BME280;40928;51.076;7.950;2023-05-10T09:32:44;96588.91;;;13.43;100.00
55032;BME280;40928;51.076;7.950;2023-05-10T09:35:13;96577.91;;;13.49;100.00
55032;BME280;40928;51.076;7.950;2023-05-10T09:37:39;96573.34;;;13.39;100.00
55032;BME280;40928;51.076;7.950;2023-05-10T09:40:17;96577.13;;;13.54;100.00
55032;BME280;40928;51.076;7.950;2023-05-10T09:42:51;96575.22;;;13.75;100.00
55032;BME280;40928;51.076;7.950;2023-05-10T09:45:17;96574.94;;;13.87;100.00
55032;BME280;40928;51.076;7.950;2023-05-10T09:47:42;96587.00;;;13.95;100.00
55032;BME280;40928;51.076;7.950;2023-05-10T09:50:09;96580.31;;;13.92;100.00
55032;BME280;40928;51.076;7.950;2023-05-10T09:52:52;96576.28;;;13.79;100.00
55032;BME280;40928;51.076;7.950;2023-05-10T09:55:25;96589.16;;;13.88;100.00
55032;BME280;40928;51.076;7.950;2023-05-10T09:58:00;96579.50;;;13.92;100.00
55032;BME280;40928;51.076;7.950;2023-05-10T10:00:27;96591.84;;;13.72;100.00
55032;BME280;40928;51.076;7.950;2023-05-10T10:02:57;96585.97;;;13.44;100.00
55032;BME280;40928;51.076;7.950;2023-05-10T10:05:35;96584.88;;;13.76;100.00
55032;BME280;40928;51.076;7.950;2023-05-10T10:08:03;96590.19;;;14.12;100.00
55032;BME280;40928;51.076;7.950;2023-05-10T10:10:31;96584.19;;;14.46;100.00
55032;BME280;40928;51.076;7.950;2023-05-10T10:12:58;96577.66;;;14.63;100.00
55032;BME280;40928;51.076;7.950;2023-05-10T10:15:25;96584.38;;;14.71;100.00
55032;BME280;40928;51.076;7.950;2023-05-10T10:17:52;96582.34;;;14.97;100.00
55032;BME280;40928;51.076;7.950;2023-05-10T10:20:20;96573.94;;;15.09;100.00
55032;BME280;40928;51.076;7.950;2023-05-10T10:22:46;96575.88;;;15.03;100.00
55032;BME280;40928;51.076;7.950;2023-05-10T10:25:13;96579.13;;;14.95;100.00
55032;BME280;40928;51.076;7.950;2023-05-10T10:27:59;96580.88;;;14.75;100.00
55032;BME280;40928;51.076;7.950;2023-05-10T10:30:40;96579.78;;;14.76;100.00
55032;BME280;40928;51.076;7.950;2023-05-10T10:35:39;96573.31;;;15.57;100.00
55032;BME280;40928;51.076;7.950;2023-05-10T10:38:08;96574.94;;;16.17;100.00
55032;BME280;40928;51.076;7.950;2023-05-10T10:40:33;96568.56;;;16.08;100.00
55032;BME280;40928;51.076;7.950;2023-05-10T10:43:25;96581.31;;;15.97;100.00
55032;BME280;40928;51.076;7.950;2023-05-10T10:46:14;96578.19;;;15.84;100.00
55032;BME280;40928;51.076;7.950;2023-05-10T10:48:43;96579.19;;;15.64;100.00
55032;BME280;40928;51.076;7.950;2023-05-10T10:51:13;96574.78;;;15.44;100.00
55032;BME280;40928;51.076;7.950;2023-05-10T10:53:39;96575.66;;;15.34;100.00
55032;BME280;40928;51.076;7.950;2023-05-10T10:56:12;96570.47;;;15.09;100.00
55032;BME280;40928;51.076;7.950;2023-05-10T10:58:41;96575.88;;;15.03;100.00
55032;BME280;40928;51.076;7.950;2023-05-10T11:01:17;96575.34;;;14.96;100.00
55032;BME280;40928;51.076;7.950;2023-05-10T11:09:00;96588.41;;;14.63;100.00
55032;BME280;40928;51.076;7.950;2023-05-10T11:11:31;96590.28;;;14.62;100.00
55032;BME280;40928;51.076;7.950;2023-05-10T11:14:03;96593.81;;;14.53;100.00
55032;BME280;40928;51.076;7.950;2023-05-10T11:16:41;96590.88;;;14.49;100.00
55032;BME280;40928;51.076;7.950;2023-05-10T11:19:07;96593.03;;;14.42;100.00
55032;BME280;40928;51.076;7.950;2023-05-10T11:21:45;96598.16;;;14.43;100.00
55032;BME280;40928;51.076;7.950;2023-05-10T11:24:16;96595.47;;;14.43;100.00
55032;BME280;40928;51.076;7.950;2023-05-10T11:26:42;96589.25;;;14.53;100.00
55032;BME280;40928;51.076;7.950;2023-05-10T11:29:07;96585.97;;;14.72;100.00
55032;BME280;40928;51.076;7.950;2023-05-10T11:34:30;96591.00;;;14.89;100.00
55032;BME280;40928;51.076;7.950;2023-05-10T11:36:57;96583.50;;;14.81;100.00
55032;BME280;40928;51.076;7.950;2023-05-10T11:39:27;96598.59;;;14.66;100.00
55032;BME280;40928;51.076;7.950;2023-05-10T11:41:53;96602.22;;;14.25;100.00
55032;BME280;40928;51.076;7.950;2023-05-10T11:44:19;96606.81;;;14.20;100.00
55032;BME280;40928;51.076;7.950;2023-05-10T11:46:45;96609.53;;;14.09;100.00
55032;BME280;40928;51.076;7.950;2023-05-10T11:49:10;96610.63;;;13.98;100.00
55032;BME280;40928;51.076;7.950;2023-05-10T11:51:36;96616.56;;;13.84;100.00
55032;BME280;40928;51.076;7.950;2023-05-10T11:54:07;96621.63;;;13.65;100.00
55032;BME280;40928;51.076;7.950;2023-05-10T11:56:33;96623.25;;;13.72;100.00
55032;BME280;40928;51.076;7.950;2023-05-10T11:59:00;96619.75;;;13.76;100.00
55032;BME280;40928;51.076;7.950;2023-05-10T12:01:28;96631.56;;;13.75;100.00
55032;BME280;40928;51.076;7.950;2023-05-10T12:03:56;96628.34;;;13.78;100.00
55032;BME280;40928;51.076;7.950;2023-05-10T12:06:30;96629.41;;;13.77;100.00
55032;BME280;40928;51.076;7.950;2023-05-10T12:08:56;96629.72;;;13.76;100.00
55032;BME280;40928;51.076;7.950;2023-05-10T12:11:25;96631.03;;;13.73;100.00
55032;BME280;40928;51.076;7.950;2023-05-10T12:13:51;96640.44;;;13.60;100.00
55032;BME280;40928;51.076;7.950;2023-05-10T12:16:19;96641.78;;;13.63;100.00
55032;BME280;40928;51.076;7.950;2023-05-10T12:18:48;96637.47;;;13.62;100.00
55032;BME280;40928;51.076;7.950;2023-05-10T12:21:14;96640.72;;;13.69;100.00
55032;BME280;40928;51.076;7.950;2023-05-10T12:23:40;96648.19;;;13.62;100.00
55032;BME280;40928;51.076;7.950;2023-05-10T12:26:09;96652.50;;;13.63;100.00
55032;BME280;40928;51.076;7.950;2023-05-10T12:28:35;96655.19;;;13.68;100.00
55032;BME280;40928;51.076;7.950;2023-05-10T12:31:01;96654.38;;;13.67;100.00
55032;BME280;40928;51.076;7.950;2023-05-10T12:33:35;96655.47;;;13.61;100.00
55032;BME280;40928;51.076;7.950;2023-05-10T12:36:02;96653.03;;;13.60;100.00
55032;BME280;40928;51.076;7.950;2023-05-10T12:38:34;96658.66;;;13.58;100.00
55032;BME280;40928;51.076;7.950;2023-05-10T12:41:02;96657.88;;;13.63;100.00
55032;BME280;40928;51.076;7.950;2023-05-10T12:43:28;96669.13;;;13.65;100.00
55032;BME280;40928;51.076;7.950;2023-05-10T12:45:54;96682.81;;;13.68;100.00
55032;BME280;40928;51.076;7.950;2023-05-10T12:48:20;96675.03;;;13.62;100.00
55032;BME280;40928;51.076;7.950;2023-05-10T12:50:46;96679.59;;;13.56;100.00
55032;BME280;40928;51.076;7.950;2023-05-10T12:53:13;96682.19;;;13.25;100.00
55032;BME280;40928;51.076;7.950;2023-05-10T12:55:43;96675.53;;;13.43;100.00
55032;BME280;40928;51.076;7.950;2023-05-10T12:58:09;96675.00;;;13.41;100.00
55032;BME280;40928;51.076;7.950;2023-05-10T13:00:35;96676.88;;;13.51;100.00
55032;BME280;40928;51.076;7.950;2023-05-10T13:03:06;96676.63;;;13.58;100.00
55032;BME280;40928;51.076;7.950;2023-05-10T13:05:35;96683.59;;;13.59;100.00
55032;BME280;40928;51.076;7.950;2023-05-10T13:08:00;96682.56;;;13.54;100.00
55032;BME280;40928;51.076;7.950;2023-05-10T13:10:26;96678.78;;;13.50;100.00
55032;BME280;40928;51.076;7.950;2023-05-10T13:12:52;96679.03;;;13.49;100.00
55032;BME280;40928;51.076;7.950;2023-05-10T13:15:17;96687.13;;;13.59;100.00
55032;BME280;40928;51.076;7.950;2023-05-10T13:17:43;96685.78;;;13.67;100.00
55032;BME280;40928;51.076;7.950;2023-05-10T13:20:09;96684.66;;;13.47;100.00
55032;BME280;40928;51.076;7.950;2023-05-10T13:22:35;96677.72;;;13.51;100.00